Time;durP1;ratioP1;P1;durP2;ratioP2;P2;SDS_P1;SDS_P2;PMS_P1;PMS_P2;Temp;Humidity;BMP_temperature;BMP_pressure;BME280_temperature;BME280_humidity;BME280_pressure;Samples;Min_cycle;Max_cycle;Signal;HPM_P1;HPM_P2
2022/07/15 00:01:02;;;;;;;7.90;3.55;;;19.90;99.90;;;;;;5020940;28;20041;-57
2022/07/15 00:03:29;;;;;;;10.38;3.47;;;19.90;99.90;;;;;;5006952;28;20225;-57
2022/07/15 00:05:56;;;;;;;7.25;3.45;;;19.80;99.90;;;;;;4996585;28;20032;-57
2022/07/15 00:08:23;;;;;;;5.38;3.50;;;19.80;99.90;;;;;;5007867;28;20045;-56
2022/07/15 00:10:50;;;;;;;12.02;3.40;;;19.80;99.90;;;;;;4996969;28;20212;-57
2022/07/15 00:13:18;;;;;;;6.25;3.75;;;19.80;99.90;;;;;;5003210;28;20037;-56
2022/07/15 00:15:45;;;;;;;11.32;3.25;;;19.80;99.90;;;;;;4996788;28;20044;-57
2022/07/15 00:18:11;;;;;;;5.32;3.55;;;19.80;99.90;;;;;;4995650;28;20229;-55
2022/07/15 00:20:40;;;;;;;10.07;3.42;;;19.80;99.90;;;;;;4995972;28;20052;-56
2022/07/15 00:23:07;;;;;;;4.03;2.85;;;19.80;99.90;;;;;;4995693;28;20566;-57
2022/07/15 00:25:35;;;;;;;8.80;3.65;;;19.80;99.90;;;;;;5032512;28;20052;-56
2022/07/15 00:28:05;;;;;;;6.50;3.20;;;19.80;99.90;;;;;;5013127;28;20186;-55
2022/07/15 00:30:39;;;;;;;6.22;3.65;;;19.80;99.90;;;;;;5027486;28;20052;-57
2022/07/15 00:33:07;;;;;;;9.15;3.60;;;19.70;99.90;;;;;;5027485;28;20834;-56
2022/07/15 00:35:35;;;;;;;4.20;3.50;;;19.70;99.90;;;;;;5011619;28;20194;-57
2022/07/15 00:38:04;;;;;;;8.20;3.55;;;19.70;99.90;;;;;;5014002;28;20044;-56
2022/07/15 00:40:45;;;;;;;5.95;3.22;;;19.70;99.90;;;;;;5011681;28;20039;-56
2022/07/15 00:43:16;;;;;;;9.30;3.40;;;19.60;99.90;;;;;;5014097;28;20036;-55
2022/07/15 00:45:43;;;;;;;5.78;3.53;;;19.60;99.90;;;;;;5013852;28;20040;-56
2022/07/15 00:48:11;;;;;;;7.43;3.42;;;19.60;99.90;;;;;;5010087;28;20757;-56
2022/07/15 00:50:45;;;;;;;5.63;3.33;;;19.60;99.90;;;;;;5014062;28;20426;-57
2022/07/15 00:53:20;;;;;;;8.90;3.92;;;19.50;99.90;;;;;;5011726;28;20071;-56
2022/07/15 00:55:49;;;;;;;5.38;3.50;;;19.50;99.90;;;;;;5008905;28;20159;-57
2022/07/15 00:58:25;;;;;;;5.65;3.78;;;19.50;99.90;;;;;;5013219;28;20213;-57
2022/07/15 01:00:54;;;;;;;7.60;3.40;;;19.50;99.90;;;;;;4999974;28;20040;-56
2022/07/15 01:03:22;;;;;;;8.13;3.38;;;19.50;99.90;;;;;;4985687;28;20313;-56
2022/07/15 01:05:49;;;;;;;5.10;3.53;;;19.50;99.90;;;;;;4994214;28;20379;-56
2022/07/15 01:08:19;;;;;;;8.57;3.50;;;19.40;99.90;;;;;;4989298;28;20087;-57
2022/07/15 01:10:48;;;;;;;4.30;2.85;;;19.40;99.90;;;;;;4993113;28;20064;-56
2022/07/15 01:13:18;;;;;;;3.40;3.10;;;19.40;99.90;;;;;;5011260;28;20762;-56
2022/07/15 01:15:46;;;;;;;6.32;3.38;;;19.40;99.90;;;;;;4993513;28;20044;-56
2022/07/15 01:18:13;;;;;;;4.47;3.15;;;19.30;99.90;;;;;;5009978;28;20226;-56
2022/07/15 01:20:43;;;;;;;8.25;3.35;;;19.30;99.90;;;;;;5015346;28;20411;-56
2022/07/15 01:23:10;;;;;;;6.82;3.38;;;19.30;99.90;;;;;;5028581;28;20571;-56
2022/07/15 01:25:45;;;;;;;4.93;3.17;;;19.20;99.90;;;;;;4992586;28;20048;-56
2022/07/15 01:28:13;;;;;;;4.80;3.20;;;19.20;99.90;;;;;;5008217;28;20506;-56
2022/07/15 01:30:40;;;;;;;4.97;3.38;;;19.10;99.90;;;;;;4989573;28;20218;-57
2022/07/15 01:33:11;;;;;;;6.55;3.17;;;19.10;99.90;;;;;;4988358;28;20207;-55
2022/07/15 01:35:39;;;;;;;8.32;3.58;;;19.00;99.90;;;;;;4992750;28;20053;-56
2022/07/15 01:38:06;;;;;;;5.43;3.10;;;19.00;99.90;;;;;;4987882;28;20037;-55
2022/07/15 01:40:35;;;;;;;5.43;3.42;;;18.90;99.90;;;;;;5008243;28;20041;-55
2022/07/15 01:43:03;;;;;;;4.03;3.63;;;18.90;99.90;;;;;;5011379;28;20033;-56
2022/07/15 01:45:31;;;;;;;7.55;2.92;;;18.90;99.90;;;;;;5014313;28;20043;-56
2022/07/15 01:47:59;;;;;;;4.15;3.30;;;18.80;99.90;;;;;;5010632;28;20331;-58
2022/07/15 01:50:46;;;;;;;6.78;3.47;;;18.80;99.90;;;;;;5014770;28;20197;-56
2022/07/15 01:53:17;;;;;;;6.60;3.25;;;18.70;99.90;;;;;;5012474;28;20052;-56
2022/07/15 01:55:46;;;;;;;4.72;3.15;;;18.70;99.90;;;;;;5011608;28;20867;-56
2022/07/15 01:58:15;;;;;;;4.38;2.75;;;18.70;99.90;;;;;;5008277;28;20040;-56
2022/07/15 02:00:42;;;;;;;8.63;3.97;;;18.70;99.90;;;;;;5000712;28;20037;-56
2022/07/15 02:03:09;;;;;;;5.55;3.35;;;18.60;99.90;;;;;;5004548;28;20580;-56
2022/07/15 02:05:37;;;;;;;7.03;3.15;;;18.50;99.90;;;;;;4988377;28;20380;-57
2022/07/15 02:08:04;;;;;;;9.82;3.60;;;18.50;99.90;;;;;;4987561;28;20806;-55
2022/07/15 02:10:40;;;;;;;4.75;3.08;;;18.50;99.90;;;;;;5005474;28;20045;-56
2022/07/15 02:13:14;;;;;;;4.70;2.80;;;18.40;99.90;;;;;;5006596;28;20329;-56
2022/07/15 02:15:46;;;;;;;6.40;3.20;;;18.40;99.90;;;;;;5006305;28;20444;-56
2022/07/15 02:18:13;;;;;;;6.43;3.50;;;18.30;99.90;;;;;;4995361;28;20132;-57
2022/07/15 02:20:40;;;;;;;6.97;3.42;;;18.20;99.90;;;;;;4988165;28;20907;-55
2022/07/15 02:23:07;;;;;;;8.80;3.42;;;18.20;99.90;;;;;;4991337;28;20833;-55
2022/07/15 02:25:35;;;;;;;10.95;3.55;;;18.10;99.90;;;;;;5009058;28;20201;-55
2022/07/15 02:28:05;;;;;;;9.82;3.78;;;18.10;99.90;;;;;;5010808;28;20037;-55
2022/07/15 02:30:39;;;;;;;6.70;3.90;;;18.10;99.90;;;;;;5013315;28;20059;-56
2022/07/15 02:33:07;;;;;;;4.60;3.33;;;18.00;99.90;;;;;;4994761;28;20048;-57
2022/07/15 02:35:35;;;;;;;5.32;3.38;;;18.00;99.90;;;;;;4995806;28;20059;-56
2022/07/15 02:38:04;;;;;;;14.38;4.25;;;18.00;99.90;;;;;;5007609;28;20472;-57
2022/07/15 02:40:32;;;;;;;10.65;3.05;;;17.90;99.90;;;;;;5010545;28;20036;-57
2022/07/15 02:43:01;;;;;;;10.30;3.30;;;17.90;99.90;;;;;;5009525;28;20552;-56
2022/07/15 02:45:34;;;;;;;6.20;4.07;;;17.80;99.90;;;;;;5011451;28;20041;-56
2022/07/15 02:48:06;;;;;;;5.72;3.47;;;17.70;99.90;;;;;;5008450;28;20205;-55
2022/07/15 02:50:37;;;;;;;9.63;3.33;;;17.70;99.90;;;;;;5014399;28;20139;-56
2022/07/15 02:53:05;;;;;;;9.07;3.80;;;17.60;99.90;;;;;;5008779;28;20047;-55
2022/07/15 02:55:37;;;;;;;6.97;3.45;;;17.60;99.90;;;;;;5009444;28;20332;-56
2022/07/15 02:58:04;;;;;;;5.57;3.30;;;17.50;99.90;;;;;;5010271;28;20056;-56
2022/07/15 03:00:33;;;;;;;6.63;4.63;;;17.60;99.90;;;;;;4990659;28;20036;-55
2022/07/15 03:03:02;;;;;;;4.47;3.17;;;17.60;99.90;;;;;;5017065;28;20747;-57
2022/07/15 03:05:31;;;;;;;10.55;3.45;;;17.60;99.90;;;;;;5023650;28;20933;-56
2022/07/15 03:07:58;;;;;;;6.25;3.05;;;17.60;99.90;;;;;;5007413;28;20037;-57
2022/07/15 03:10:25;;;;;;;6.75;2.90;;;17.70;99.90;;;;;;5010922;28;20056;-54
2022/07/15 03:12:52;;;;;;;6.47;2.72;;;17.70;99.90;;;;;;5007480;28;20040;-56
2022/07/15 03:15:19;;;;;;;6.55;3.10;;;17.70;99.90;;;;;;4992958;28;20064;-57
2022/07/15 03:17:47;;;;;;;5.28;3.13;;;17.70;99.90;;;;;;5005755;28;20606;-57
2022/07/15 03:20:14;;;;;;;5.93;2.97;;;17.70;99.90;;;;;;4994839;28;20048;-56
2022/07/15 03:22:48;;;;;;;5.40;2.70;;;17.80;99.90;;;;;;4991424;28;20197;-56
2022/07/15 03:25:15;;;;;;;6.03;3.30;;;17.70;99.90;;;;;;5011551;28;20671;-56
2022/07/15 03:27:42;;;;;;;8.07;2.92;;;17.70;99.90;;;;;;5012572;28;20126;-55
2022/07/15 03:30:11;;;;;;;3.67;3.17;;;17.60;99.90;;;;;;5030850;28;20048;-56
2022/07/15 03:32:40;;;;;;;4.50;3.13;;;17.60;99.90;;;;;;5029395;28;20260;-56
2022/07/15 03:35:07;;;;;;;11.20;3.72;;;17.60;99.90;;;;;;5013697;28;20744;-55
2022/07/15 03:37:37;;;;;;;6.63;3.30;;;17.50;99.90;;;;;;5031941;28;20363;-56
2022/07/15 03:40:05;;;;;;;5.28;2.63;;;17.50;99.90;;;;;;5008665;28;20456;-57
2022/07/15 03:42:35;;;;;;;6.93;3.55;;;17.50;99.90;;;;;;5014309;28;20185;-57
2022/07/15 03:45:03;;;;;;;6.45;3.53;;;17.50;99.90;;;;;;5013716;28;20248;-57
2022/07/15 03:47:31;;;;;;;6.03;3.28;;;17.50;99.90;;;;;;5014911;28;20052;-55
2022/07/15 03:50:00;;;;;;;13.05;3.50;;;17.50;99.90;;;;;;5014627;28;20301;-57
2022/07/15 03:52:33;;;;;;;13.57;3.88;;;17.50;99.90;;;;;;5012803;28;20048;-57
2022/07/15 03:55:00;;;;;;;4.57;2.95;;;17.50;99.90;;;;;;5013133;28;20044;-57
2022/07/15 03:57:30;;;;;;;4.72;3.22;;;17.50;99.90;;;;;;4980226;28;20878;-56
2022/07/15 03:59:57;;;;;;;4.78;3.00;;;17.60;99.90;;;;;;5015668;28;20035;-56
2022/07/15 04:02:24;;;;;;;4.90;3.35;;;17.60;99.90;;;;;;5008284;28;20049;-56
2022/07/15 04:04:52;;;;;;;4.88;3.15;;;17.60;99.90;;;;;;4996215;28;20171;-55
2022/07/15 04:07:19;;;;;;;3.75;3.10;;;17.60;99.90;;;;;;5002118;28;20724;-54
2022/07/15 04:09:46;;;;;;;6.20;3.22;;;17.60;99.90;;;;;;4993330;28;20118;-55
2022/07/15 04:12:13;;;;;;;4.47;2.60;;;17.60;99.90;;;;;;5016014;28;20489;-56
2022/07/15 04:14:40;;;;;;;6.57;3.20;;;17.60;99.90;;;;;;4994349;28;20040;-56
2022/07/15 04:17:08;;;;;;;7.03;3.83;;;17.60;99.90;;;;;;4995831;28;20033;-57
2022/07/15 04:19:37;;;;;;;3.42;3.00;;;17.70;99.90;;;;;;5010315;28;20036;-57
2022/07/15 04:22:05;;;;;;;4.85;2.40;;;17.70;99.90;;;;;;5010275;28;20037;-57
2022/07/15 04:24:39;;;;;;;5.60;3.35;;;17.60;99.90;;;;;;5023848;28;20032;-57
2022/07/15 04:27:11;;;;;;;7.28;3.33;;;17.60;99.90;;;;;;5015446;28;20133;-51
2022/07/15 04:29:38;;;;;;;10.23;3.10;;;17.70;99.90;;;;;;5026246;28;20470;-51
2022/07/15 04:32:07;;;;;;;5.07;2.75;;;17.70;99.90;;;;;;5030020;28;20040;-52
2022/07/15 04:34:39;;;;;;;4.18;2.97;;;17.70;99.90;;;;;;5008561;28;20205;-52
2022/07/15 04:37:06;;;;;;;5.68;3.60;;;17.70;99.90;;;;;;5032208;28;20151;-55
2022/07/15 04:39:35;;;;;;;4.63;3.10;;;17.80;99.90;;;;;;5028193;28;20036;-53
2022/07/15 04:42:02;;;;;;;3.33;2.70;;;17.80;99.90;;;;;;5031851;28;20227;-51
2022/07/15 04:44:32;;;;;;;4.10;2.83;;;17.90;99.90;;;;;;5013245;28;20045;-52
2022/07/15 04:46:59;;;;;;;7.88;4.10;;;17.90;99.90;;;;;;5010595;28;20037;-53
2022/07/15 04:52:17;;;;;;;6.18;2.90;;;18.00;99.90;;;;;;5027874;28;20052;-53
2022/07/15 04:54:47;;;;;;;7.18;3.05;;;18.00;99.90;;;;;;5012544;28;20519;-52
2022/07/15 04:57:14;;;;;;;6.63;3.13;;;18.00;99.90;;;;;;5026561;28;20056;-53
2022/07/15 04:59:41;;;;;;;7.78;3.85;;;18.10;99.90;;;;;;5028421;28;20383;-53
2022/07/15 05:02:13;;;;;;;7.85;3.15;;;18.10;99.90;;;;;;5011602;28;20354;-53
2022/07/15 05:04:44;;;;;;;9.45;3.42;;;18.20;99.90;;;;;;5028694;28;20067;-54
2022/07/15 05:07:11;;;;;;;6.72;3.53;;;18.20;99.90;;;;;;5012635;28;20130;-53
2022/07/15 05:09:40;;;;;;;7.85;3.38;;;18.30;99.90;;;;;;4996691;28;20084;-54
2022/07/15 05:12:07;;;;;;;5.43;3.25;;;18.30;99.90;;;;;;5015163;28;20037;-53
2022/07/15 05:14:48;;;;;;;5.78;3.20;;;18.30;99.90;;;;;;5006448;28;20118;-53
2022/07/15 05:17:15;;;;;;;5.53;3.58;;;18.40;99.90;;;;;;5009318;28;20205;-53
2022/07/15 05:19:44;;;;;;;9.32;3.40;;;18.40;99.90;;;;;;5005398;28;20049;-53
2022/07/15 05:22:18;;;;;;;7.25;3.28;;;18.50;99.90;;;;;;4990814;28;20102;-52
2022/07/15 05:24:45;;;;;;;4.88;3.40;;;18.60;99.90;;;;;;4989431;28;20132;-53
2022/07/15 05:27:15;;;;;;;5.57;3.03;;;18.60;99.90;;;;;;5008200;28;20033;-50
2022/07/15 05:29:45;;;;;;;5.32;3.58;;;18.60;99.90;;;;;;5007336;28;20056;-53
2022/07/15 05:32:13;;;;;;;4.78;3.03;;;18.60;99.90;;;;;;4993399;28;20399;-53
2022/07/15 05:34:41;;;;;;;8.02;3.28;;;18.60;99.90;;;;;;4992052;28;20060;-51
2022/07/15 05:37:11;;;;;;;8.43;3.10;;;18.60;99.90;;;;;;5005834;28;20678;-53
2022/07/15 05:39:53;;;;;;;7.97;3.50;;;18.60;99.90;;;;;;5011047;28;20045;-50
2022/07/15 05:42:26;;;;;;;5.18;3.22;;;18.70;99.90;;;;;;4991933;28;20345;-52
2022/07/15 05:44:55;;;;;;;3.95;3.00;;;18.70;99.90;;;;;;4983905;28;20041;-57
2022/07/15 05:47:22;;;;;;;6.22;3.47;;;18.70;99.90;;;;;;5010172;28;20040;-52
2022/07/15 05:49:49;;;;;;;6.88;3.40;;;18.80;99.90;;;;;;5010930;28;20067;-51
2022/07/15 05:52:16;;;;;;;5.85;2.80;;;18.80;99.90;;;;;;5011808;28;20151;-52
2022/07/15 05:54:44;;;;;;;8.45;3.45;;;18.80;99.90;;;;;;5013966;28;20126;-53
2022/07/15 05:57:11;;;;;;;6.03;2.63;;;18.80;99.90;;;;;;5012358;28;20055;-52
2022/07/15 05:59:39;;;;;;;6.50;3.53;;;18.90;99.90;;;;;;5009134;28;20056;-50
2022/07/15 06:02:06;;;;;;;8.10;3.20;;;18.90;99.90;;;;;;5007487;28;20575;-48
2022/07/15 06:04:36;;;;;;;3.63;3.22;;;19.00;99.90;;;;;;4991166;28;20325;-51
2022/07/15 06:07:05;;;;;;;4.97;2.90;;;19.00;99.90;;;;;;4988184;28;20067;-51
2022/07/15 06:09:32;;;;;;;7.85;3.10;;;19.10;99.90;;;;;;5011691;28;20033;-51
2022/07/15 06:11:59;;;;;;;5.75;3.63;;;19.10;99.90;;;;;;5017383;28;20755;-50
2022/07/15 06:14:26;;;;;;;6.03;2.90;;;19.20;99.90;;;;;;4989743;28;20040;-50
2022/07/15 06:17:01;;;;;;;5.75;3.03;;;19.20;99.90;;;;;;5002639;28;20044;-49
2022/07/15 06:19:28;;;;;;;7.40;3.95;;;19.30;99.90;;;;;;5004878;28;20044;-50
2022/07/15 06:21:55;;;;;;;6.45;2.97;;;19.30;99.90;;;;;;5005377;28;20033;-48
2022/07/15 06:24:23;;;;;;;5.45;2.95;;;19.40;99.90;;;;;;5032575;28;20147;-46
2022/07/15 06:26:50;;;;;;;3.42;2.97;;;19.40;99.90;;;;;;5003668;28;20269;-51
2022/07/15 06:29:19;;;;;;;8.27;3.63;;;19.50;99.90;;;;;;5011480;28;20033;-52
2022/07/15 06:31:47;;;;;;;7.13;2.85;;;19.50;99.90;;;;;;5012122;28;21111;-53
2022/07/15 06:34:15;;;;;;;6.95;3.08;;;19.60;99.90;;;;;;5011022;28;20205;-53
2022/07/15 06:36:42;;;;;;;7.13;3.40;;;19.60;99.90;;;;;;5005257;28;20037;-52
2022/07/15 06:39:10;;;;;;;4.40;3.30;;;19.70;99.90;;;;;;5010761;28;20036;-51
2022/07/15 06:41:38;;;;;;;4.97;2.92;;;19.70;99.90;;;;;;4994886;28;20101;-51
2022/07/15 06:44:05;;;;;;;7.10;3.40;;;19.80;99.90;;;;;;5010263;28;20202;-53
2022/07/15 06:46:42;;;;;;;8.10;3.60;;;19.90;99.90;;;;;;5011429;28;20614;-53
2022/07/15 06:49:10;;;;;;;11.13;3.17;;;20.00;99.90;;;;;;5010766;28;20166;-53
2022/07/15 06:51:37;;;;;;;7.10;3.20;;;20.00;99.90;;;;;;5013629;28;20040;-46
2022/07/15 06:54:07;;;;;;;6.57;3.00;;;20.10;99.90;;;;;;5026768;28;20040;-46
2022/07/15 06:56:37;;;;;;;6.43;3.65;;;20.20;99.90;;;;;;5008930;28;20040;-47
2022/07/15 06:59:04;;;;;;;6.38;3.60;;;20.30;99.90;;;;;;4994600;28;20458;-46
2022/07/15 07:01:33;;;;;;;9.93;3.38;;;20.40;99.90;;;;;;5005989;28;20206;-47
2022/07/15 07:04:02;;;;;;;4.45;2.97;;;20.50;99.90;;;;;;4987821;28;20064;-45
2022/07/15 07:06:30;;;;;;;9.80;3.72;;;20.60;99.90;;;;;;4986529;28;20175;-46
2022/07/15 07:08:57;;;;;;;5.85;3.03;;;20.70;99.90;;;;;;5000052;28;20110;-49
2022/07/15 07:11:24;;;;;;;9.50;3.47;;;20.80;99.90;;;;;;5020322;28;20087;-49
2022/07/15 07:13:52;;;;;;;8.88;3.72;;;20.90;99.90;;;;;;4992619;28;20045;-47
2022/07/15 07:16:19;;;;;;;4.60;2.83;;;21.00;99.50;;;;;;4985757;28;20155;-53
2022/07/15 07:18:47;;;;;;;6.80;4.07;;;21.00;99.20;;;;;;4990532;28;20044;-47
2022/07/15 07:21:15;;;;;;;10.50;3.78;;;21.10;97.50;;;;;;4990644;28;20321;-48
2022/07/15 07:23:44;;;;;;;7.28;3.58;;;21.10;96.00;;;;;;4987613;28;20389;-48
2022/07/15 07:26:16;;;;;;;7.50;3.97;;;21.10;96.50;;;;;;5006600;28;20048;-52
2022/07/15 07:28:45;;;;;;;8.60;3.38;;;21.10;94.30;;;;;;5006096;28;20220;-52
2022/07/15 07:31:13;;;;;;;7.22;3.63;;;21.10;94.00;;;;;;5001833;28;20341;-51
2022/07/15 07:33:42;;;;;;;10.40;4.28;;;21.10;95.70;;;;;;5006780;28;20189;-57
2022/07/15 07:36:09;;;;;;;8.68;4.35;;;21.20;96.40;;;;;;5009561;28;20106;-57
2022/07/15 07:38:37;;;;;;;7.93;3.85;;;21.20;94.50;;;;;;5008260;28;20122;-50
2022/07/15 07:41:04;;;;;;;15.48;4.32;;;21.20;93.00;;;;;;5007909;28;20195;-50
2022/07/15 07:43:32;;;;;;;10.32;3.92;;;21.20;93.10;;;;;;5015115;28;20107;-46
2022/07/15 07:45:59;;;;;;;11.90;3.55;;;21.30;94.80;;;;;;5012861;28;20040;-54
2022/07/15 07:48:27;;;;;;;11.18;4.20;;;21.30;94.30;;;;;;4996586;28;20193;-51
2022/07/15 07:50:54;;;;;;;12.68;3.72;;;21.40;92.90;;;;;;5008818;28;20835;-47
2022/07/15 07:53:21;;;;;;;5.97;3.92;;;21.40;91.80;;;;;;5015374;28;20760;-48
2022/07/15 07:55:49;;;;;;;10.32;3.42;;;21.40;92.20;;;;;;5014125;28;20619;-49
2022/07/15 07:58:17;;;;;;;5.63;3.72;;;21.40;93.70;;;;;;5009971;28;20118;-48
2022/07/15 08:00:44;;;;;;;5.57;3.45;;;21.50;95.10;;;;;;4996996;28;20578;-49
2022/07/15 08:03:12;;;;;;;11.05;4.07;;;21.70;95.00;;;;;;4986551;28;20672;-48
2022/07/15 08:05:39;;;;;;;7.53;3.80;;;21.90;93.10;;;;;;4977640;28;20396;-63
2022/07/15 08:08:12;;;;;;;10.30;4.00;;;22.00;92.90;;;;;;5005480;28;20443;-64
2022/07/15 08:10:41;;;;;;;5.70;3.35;;;22.20;93.90;;;;;;5014078;28;20040;-64
2022/07/15 08:13:17;;;;;;;7.78;3.40;;;22.40;91.50;;;;;;4995523;28;20206;-62
2022/07/15 08:15:45;;;;;;;10.70;3.83;;;22.60;91.00;;;;;;5013458;28;20047;-63
2022/07/15 08:18:13;;;;;;;8.93;3.78;;;22.80;91.60;;;;;;5013051;28;20560;-63
2022/07/15 08:20:41;;;;;;;10.52;4.00;;;23.00;86.40;;;;;;4988235;28;20851;-64
2022/07/15 08:23:08;;;;;;;11.65;3.92;;;23.10;83.00;;;;;;5010895;28;20090;-62
2022/07/15 08:25:37;;;;;;;10.23;3.85;;;23.30;86.20;;;;;;4972851;28;21210;-65
2022/07/15 08:28:06;;;;;;;13.68;3.88;;;23.50;88.90;;;;;;5012987;28;20037;-64
2022/07/15 08:30:34;;;;;;;9.18;3.42;;;23.60;86.40;;;;;;5012971;28;20051;-66
2022/07/15 08:33:02;;;;;;;11.40;3.80;;;23.80;87.20;;;;;;5029381;28;20223;-63
2022/07/15 08:35:29;;;;;;;11.10;3.85;;;24.10;79.70;;;;;;5011457;28;20578;-61
2022/07/15 08:37:57;;;;;;;8.52;3.72;;;24.30;82.30;;;;;;5015191;28;20218;-61
2022/07/15 08:40:25;;;;;;;11.77;3.25;;;24.50;82.00;;;;;;4999104;28;20051;-65
2022/07/15 08:42:53;;;;;;;12.55;3.97;;;24.80;80.80;;;;;;4993357;28;20214;-66
2022/07/15 08:45:20;;;;;;;4.97;3.08;;;25.00;76.30;;;;;;5016153;28;20045;-64
2022/07/15 08:47:47;;;;;;;6.78;3.10;;;25.20;71.70;;;;;;5013644;28;20036;-63
2022/07/15 08:50:22;;;;;;;8.68;4.03;;;25.40;63.70;;;;;;5038620;28;20067;-61
2022/07/15 08:52:51;;;;;;;12.98;3.67;;;25.50;64.10;;;;;;5055967;28;20823;-63
2022/07/15 08:55:19;;;;;;;4.60;3.42;;;25.70;58.30;;;;;;5038572;28;20136;-61
2022/07/15 08:57:52;;;;;;;5.50;3.17;;;25.80;62.70;;;;;;5055532;28;20098;-62
2022/07/15 09:00:31;;;;;;;4.00;2.55;;;25.90;61.50;;;;;;5034574;28;20562;-60
2022/07/15 09:03:04;;;;;;;23.35;4.07;;;26.10;60.90;;;;;;5050670;28;20151;-63
2022/07/15 09:05:33;;;;;;;6.78;4.15;;;26.30;58.80;;;;;;5034986;28;20045;-61
2022/07/15 09:08:06;;;;;;;7.88;3.17;;;26.50;60.90;;;;;;5035967;28;20122;-60
2022/07/15 09:10:49;;;;;;;5.47;3.30;;;26.60;58.00;;;;;;5035910;28;20037;-60
2022/07/15 09:13:31;;;;;;;7.18;3.38;;;26.90;59.10;;;;;;5029614;28;20166;-61
2022/07/15 09:16:10;;;;;;;6.63;3.67;;;27.10;56.20;;;;;;5033034;28;20053;-60
2022/07/15 09:18:40;;;;;;;15.25;3.17;;;27.20;59.40;;;;;;5017152;28;20106;-62
2022/07/15 09:21:23;;;;;;;4.47;2.97;;;27.40;58.90;;;;;;5016982;28;20067;-60
2022/07/15 09:23:51;;;;;;;8.38;3.17;;;27.70;59.00;;;;;;5034403;28;20048;-60
2022/07/15 09:26:38;;;;;;;4.97;3.38;;;27.90;55.50;;;;;;5034829;28;20049;-61
2022/07/15 09:35:04;;;;;;;5.22;3.00;;;28.10;55.40;;;;;;5034899;28;20364;-61
2022/07/15 09:37:31;;;;;;;12.73;2.97;;;28.30;53.20;;;;;;5040639;28;20589;-61
2022/07/15 09:40:00;;;;;;;11.25;3.38;;;28.30;54.10;;;;;;5041685;28;20110;-61
2022/07/15 09:42:27;;;;;;;6.00;3.35;;;28.40;53.40;;;;;;5054215;28;20036;-61
2022/07/15 09:44:54;;;;;;;6.03;3.65;;;28.40;55.30;;;;;;5054657;28;20040;-61
2022/07/15 09:47:24;;;;;;;5.07;3.30;;;28.40;54.20;;;;;;5054922;28;20053;-61
2022/07/15 09:49:51;;;;;;;18.35;3.30;;;28.50;54.00;;;;;;5037215;28;20040;-62
2022/07/15 09:52:18;;;;;;;6.32;3.03;;;28.40;51.70;;;;;;5055016;28;20048;-60
2022/07/15 09:54:48;;;;;;;9.75;3.13;;;28.40;52.10;;;;;;5054055;28;20044;-61
2022/07/15 09:57:17;;;;;;;11.95;3.15;;;28.50;50.80;;;;;;5055262;28;20135;-61
2022/07/15 09:59:46;;;;;;;7.43;3.42;;;28.50;52.40;;;;;;5054638;28;20131;-60
2022/07/15 10:02:14;;;;;;;7.47;3.67;;;28.60;51.10;;;;;;5033875;28;20099;-61
2022/07/15 10:04:42;;;;;;;17.73;3.63;;;28.70;50.50;;;;;;5033958;28;20048;-61
2022/07/15 10:07:12;;;;;;;8.88;3.53;;;28.80;51.70;;;;;;5033344;28;20456;-61
2022/07/15 10:09:58;;;;;;;11.07;3.33;;;28.80;49.80;;;;;;5044202;28;20043;-61
2022/07/15 10:12:51;;;;;;;6.78;2.85;;;28.70;51.00;;;;;;5036942;28;20838;-61
2022/07/15 10:16:03;;;;;;;7.68;3.38;;;28.80;52.00;;;;;;5034044;28;20049;-60
2022/07/15 10:19:02;;;;;;;5.78;3.40;;;28.80;51.10;;;;;;5019604;28;20052;-61
2022/07/15 10:21:55;;;;;;;14.85;3.72;;;28.80;51.60;;;;;;5035792;28;20048;-62
2022/07/15 10:24:49;;;;;;;9.43;3.05;;;28.80;50.80;;;;;;5022093;28;20044;-61
2022/07/15 10:27:43;;;;;;;6.82;2.90;;;28.80;51.70;;;;;;5052616;28;20084;-62
2022/07/15 10:30:10;;;;;;;7.38;2.83;;;28.90;52.50;;;;;;5047275;28;20032;-61
2022/07/15 10:33:15;;;;;;;4.13;2.58;;;28.90;52.00;;;;;;5053752;28;20048;-61
2022/07/15 10:35:52;;;;;;;11.38;3.63;;;29.00;52.90;;;;;;5053623;28;20591;-62
2022/07/15 10:38:34;;;;;;;8.45;3.17;;;29.10;51.20;;;;;;5050411;28;20108;-61
2022/07/15 10:41:08;;;;;;;6.25;3.35;;;29.00;50.30;;;;;;5051765;28;20047;-61
2022/07/15 10:43:42;;;;;;;8.82;2.58;;;29.00;50.50;;;;;;5053300;28;20044;-61
2022/07/15 10:46:18;;;;;;;5.50;3.42;;;29.00;51.20;;;;;;5036288;28;20044;-60
2022/07/15 10:48:52;;;;;;;8.70;3.47;;;29.00;51.70;;;;;;5054078;28;20086;-62
2022/07/15 10:51:37;;;;;;;7.88;3.15;;;29.00;51.10;;;;;;5054172;28;20108;-61
2022/07/15 10:54:49;;;;;;;10.45;3.25;;;28.90;49.20;;;;;;5034923;28;20110;-61
2022/07/15 10:57:20;;;;;;;8.52;3.10;;;28.80;50.00;;;;;;5028229;28;20052;-62
2022/07/15 10:59:53;;;;;;;7.13;2.90;;;29.00;51.60;;;;;;5050142;28;20041;-61
2022/07/15 11:02:22;;;;;;;8.75;3.28;;;29.10;50.90;;;;;;5016265;28;20037;-60
2022/07/15 11:04:50;;;;;;;5.95;3.33;;;29.20;50.20;;;;;;5016072;28;20867;-62
2022/07/15 11:07:18;;;;;;;6.47;4.22;;;29.30;52.00;;;;;;5015465;28;20060;-62
2022/07/15 11:09:54;;;;;;;11.70;4.05;;;29.40;50.30;;;;;;5033968;28;20590;-61
2022/07/15 11:12:30;;;;;;;11.23;3.92;;;29.40;50.60;;;;;;5048653;28;20037;-61
2022/07/15 11:15:17;;;;;;;6.10;3.42;;;29.30;50.50;;;;;;5033665;28;20071;-61
2022/07/15 11:17:49;;;;;;;8.57;3.17;;;29.30;50.70;;;;;;5033776;28;20049;-61
2022/07/15 11:20:30;;;;;;;6.22;3.58;;;29.20;50.50;;;;;;5017373;28;20120;-61
2022/07/15 11:22:59;;;;;;;8.52;3.10;;;29.20;48.60;;;;;;5031795;28;20552;-61
2022/07/15 11:25:25;;;;;;;10.57;3.38;;;29.30;47.50;;;;;;5033610;28;20053;-62
2022/07/15 11:28:13;;;;;;;5.20;3.50;;;29.50;48.90;;;;;;5033724;28;20045;-61
2022/07/15 11:30:53;;;;;;;6.47;3.35;;;29.60;49.20;;;;;;5040722;28;20059;-61
2022/07/15 11:33:25;;;;;;;14.60;3.33;;;29.70;49.50;;;;;;5033401;28;20044;-62
2022/07/15 11:35:55;;;;;;;7.05;2.90;;;29.90;49.70;;;;;;5032702;28;20956;-62
2022/07/15 11:38:25;;;;;;;6.75;3.58;;;30.10;48.80;;;;;;5033651;28;20041;-61
2022/07/15 11:46:29;;;;;;;7.18;3.88;;;30.20;49.00;;;;;;5054064;28;20053;-62
2022/07/15 11:48:57;;;;;;;6.72;3.42;;;30.00;48.80;;;;;;5056858;28;20044;-61
2022/07/15 11:51:26;;;;;;;6.88;3.42;;;29.80;50.30;;;;;;5038794;28;20044;-61
2022/07/15 11:53:54;;;;;;;5.63;3.63;;;29.80;49.00;;;;;;5039448;28;20032;-61
2022/07/15 11:56:21;;;;;;;8.02;3.15;;;29.80;51.20;;;;;;5056618;28;20036;-61
2022/07/15 11:58:53;;;;;;;5.80;3.22;;;29.70;49.60;;;;;;5057393;28;20050;-61
2022/07/15 12:01:28;;;;;;;7.10;3.03;;;29.80;50.70;;;;;;5056570;28;20052;-61
2022/07/15 12:03:58;;;;;;;4.85;2.90;;;29.80;48.40;;;;;;5056623;28;20039;-61
2022/07/15 12:06:29;;;;;;;7.32;3.40;;;29.60;48.50;;;;;;5055590;28;20036;-62
2022/07/15 12:09:03;;;;;;;6.05;3.38;;;29.50;50.20;;;;;;5053633;28;20127;-61
2022/07/15 12:11:32;;;;;;;6.05;3.42;;;29.50;49.90;;;;;;5026586;28;20040;-61
2022/07/15 12:14:03;;;;;;;4.18;3.28;;;29.60;48.60;;;;;;5042567;28;20044;-60
2022/07/15 12:16:35;;;;;;;8.23;2.92;;;29.70;49.90;;;;;;5036393;28;20045;-61
2022/07/15 12:19:08;;;;;;;10.15;3.58;;;29.80;48.80;;;;;;5036869;28;20690;-61
2022/07/15 12:21:36;;;;;;;7.32;3.65;;;29.90;48.30;;;;;;5036816;28;20055;-62
2022/07/15 12:24:08;;;;;;;4.22;2.80;;;29.80;49.30;;;;;;5035239;28;20044;-61
2022/07/15 12:26:52;;;;;;;6.57;2.75;;;29.70;47.50;;;;;;5036552;28;20037;-61
2022/07/15 12:29:22;;;;;;;6.20;3.03;;;29.40;48.00;;;;;;5039385;28;20052;-62
2022/07/15 12:32:12;;;;;;;4.25;2.80;;;29.00;48.00;;;;;;5037493;28;20080;-60
2022/07/15 12:34:54;;;;;;;13.25;3.20;;;28.70;49.50;;;;;;5035454;28;20123;-61
2022/07/15 12:37:32;;;;;;;6.57;2.80;;;28.80;50.00;;;;;;5036407;28;20052;-61
2022/07/15 12:40:09;;;;;;;11.05;4.68;;;28.90;50.90;;;;;;5019687;28;20528;-61
2022/07/15 12:42:45;;;;;;;6.30;3.08;;;29.10;51.60;;;;;;5034670;28;20040;-61
2022/07/15 12:45:16;;;;;;;3.80;2.88;;;29.20;50.20;;;;;;5055774;28;20062;-62
2022/07/15 12:48:03;;;;;;;6.38;3.25;;;29.40;50.80;;;;;;5037979;28;20176;-61
2022/07/15 12:50:31;;;;;;;;;;;29.60;49.40;;;;;;5056387;28;20040;-61
2022/07/15 12:52:58;;;;;;;8.43;3.30;;;29.60;49.40;;;;;;5055637;28;19936;-61
2022/07/15 12:55:28;;;;;;;9.88;3.10;;;29.70;49.60;;;;;;5055621;28;20057;-61
2022/07/15 12:58:07;;;;;;;6.75;3.05;;;29.80;49.50;;;;;;5055697;28;20460;-61
2022/07/15 13:00:35;;;;;;;8.15;2.90;;;30.10;48.50;;;;;;5053676;28;20052;-61
2022/07/15 13:03:19;;;;;;;4.90;2.90;;;30.30;50.20;;;;;;5053808;28;20048;-61
2022/07/15 13:05:53;;;;;;;9.52;2.92;;;30.50;46.80;;;;;;5051228;28;20040;-60
2022/07/15 13:08:26;;;;;;;8.27;3.75;;;30.80;47.80;;;;;;5035686;28;20518;-60
2022/07/15 13:10:55;;;;;;;7.20;2.70;;;30.90;46.50;;;;;;5051468;28;20090;-61
2022/07/15 13:13:24;;;;;;;6.43;3.13;;;30.80;46.00;;;;;;5034404;28;20127;-59
2022/07/15 13:15:51;;;;;;;4.65;3.08;;;30.80;46.10;;;;;;5035710;28;20660;-59
2022/07/15 13:18:19;;;;;;;9.55;3.05;;;30.90;46.70;;;;;;5035105;28;20053;-59